sensor_id;sensor_type;location;lat;lon;timestamp;P1;P2;P0
72031;PMS5003;49185;42.320;23.198;2023-06-04T00:01:50;8.00;7.00;3.00
72031;PMS5003;49185;42.320;23.198;2023-06-04T00:04:15;7.00;7.00;2.00
72031;PMS5003;49185;42.320;23.198;2023-06-04T00:06:41;5.33;5.33;1.67
72031;PMS5003;49185;42.320;23.198;2023-06-04T00:09:06;7.67;6.67;3.33
72031;PMS5003;49185;42.320;23.198;2023-06-04T00:11:31;9.00;8.00;3.00
72031;PMS5003;49185;42.320;23.198;2023-06-04T00:13:57;9.67;9.67;3.67
72031;PMS5003;49185;42.320;23.198;2023-06-04T00:16:22;8.67;7.67;2.67
72031;PMS5003;49185;42.320;23.198;2023-06-04T00:18:48;8.00;7.00;3.00
72031;PMS5003;49185;42.320;23.198;2023-06-04T00:21:13;6.33;5.00;1.00
72031;PMS5003;49185;42.320;23.198;2023-06-04T00:23:38;7.00;7.00;1.00
72031;PMS5003;49185;42.320;23.198;2023-06-04T00:26:04;8.33;8.00;2.33
72031;PMS5003;49185;42.320;23.198;2023-06-04T00:28:29;10.67;9.67;3.67
72031;PMS5003;49185;42.320;23.198;2023-06-04T00:30:55;8.00;7.67;3.33
72031;PMS5003;49185;42.320;23.198;2023-06-04T00:33:20;10.33;9.00;1.67
72031;PMS5003;49185;42.320;23.198;2023-06-04T00:35:45;11.67;11.33;4.33
72031;PMS5003;49185;42.320;23.198;2023-06-04T00:38:11;19.00;16.67;8.00
72031;PMS5003;49185;42.320;23.198;2023-06-04T00:40:36;22.33;21.00;8.00
72031;PMS5003;49185;42.320;23.198;2023-06-04T00:43:02;19.33;18.00;5.67
72031;PMS5003;49185;42.320;23.198;2023-06-04T00:45:27;14.33;11.67;3.00
72031;PMS5003;49185;42.320;23.198;2023-06-04T00:47:53;12.00;10.00;2.00
72031;PMS5003;49185;42.320;23.198;2023-06-04T00:50:19;7.00;6.00;2.00
72031;PMS5003;49185;42.320;23.198;2023-06-04T00:52:44;7.00;7.00;2.00
72031;PMS5003;49185;42.320;23.198;2023-06-04T00:55:10;8.00;7.00;2.00
72031;PMS5003;49185;42.320;23.198;2023-06-04T00:57:35;9.00;8.00;3.00
72031;PMS5003;49185;42.320;23.198;2023-06-04T01:00:02;6.00;5.00;2.75
72031;PMS5003;49185;42.320;23.198;2023-06-04T01:02:28;8.00;6.50;3.00
72031;PMS5003;49185;42.320;23.198;2023-06-04T01:05:08;7.00;5.00;2.00
72031;PMS5003;49185;42.320;23.198;2023-06-04T01:07:41;4.75;4.00;2.25
72031;PMS5003;49185;42.320;23.198;2023-06-04T01:10:09;6.75;5.50;3.00
72031;PMS5003;49185;42.320;23.198;2023-06-04T01:12:35;6.33;6.33;2.00
72031;PMS5003;49185;42.320;23.198;2023-06-04T01:15:05;5.00;4.25;2.00
72031;PMS5003;49185;42.320;23.198;2023-06-04T01:17:36;6.50;5.50;1.00
72031;PMS5003;49185;42.320;23.198;2023-06-04T01:20:07;7.50;6.50;1.00
72031;PMS5003;49185;42.320;23.198;2023-06-04T01:25:22;6.75;6.75;1.00
72031;PMS5003;49185;42.320;23.198;2023-06-04T01:27:51;6.75;5.00;1.00
72031;PMS5003;49185;42.320;23.198;2023-06-04T01:30:28;3.25;3.00;2.00
72031;PMS5003;49185;42.320;23.198;2023-06-04T01:32:55;5.75;5.25;2.00
72031;PMS5003;49185;42.320;23.198;2023-06-04T01:35:22;5.75;5.75;2.25
72031;PMS5003;49185;42.320;23.198;2023-06-04T01:37:48;4.00;4.00;1.00
72031;PMS5003;49185;42.320;23.198;2023-06-04T01:40:15;8.00;5.75;1.00
72031;PMS5003;49185;42.320;23.198;2023-06-04T01:42:41;6.00;6.00;1.00
72031;PMS5003;49185;42.320;23.198;2023-06-04T01:45:07;6.00;6.00;1.00
72031;PMS5003;49185;42.320;23.198;2023-06-04T01:47:33;5.75;5.75;0.00
72031;PMS5003;49185;42.320;23.198;2023-06-04T01:49:58;6.33;6.33;2.33
72031;PMS5003;49185;42.320;23.198;2023-06-04T01:52:24;7.00;5.00;3.00
72031;PMS5003;49185;42.320;23.198;2023-06-04T01:54:50;6.00;4.00;3.00
72031;PMS5003;49185;42.320;23.198;2023-06-04T01:57:16;6.00;5.00;3.00
72031;PMS5003;49185;42.320;23.198;2023-06-04T01:59:41;3.00;3.00;1.00
72031;PMS5003;49185;42.320;23.198;2023-06-04T02:02:06;7.00;5.00;0.00
72031;PMS5003;49185;42.320;23.198;2023-06-04T02:04:32;5.00;5.00;0.00
72031;PMS5003;49185;42.320;23.198;2023-06-04T02:06:57;6.33;6.00;0.00
72031;PMS5003;49185;42.320;23.198;2023-06-04T02:09:23;7.33;5.33;0.00
72031;PMS5003;49185;42.320;23.198;2023-06-04T02:11:48;8.33;7.67;2.33
72031;PMS5003;49185;42.320;23.198;2023-06-04T02:14:13;9.00;9.00;3.00
72031;PMS5003;49185;42.320;23.198;2023-06-04T02:16:39;7.00;6.33;3.00
72031;PMS5003;49185;42.320;23.198;2023-06-04T02:19:04;7.00;6.67;2.00
72031;PMS5003;49185;42.320;23.198;2023-06-04T02:21:30;6.00;6.00;2.33
72031;PMS5003;49185;42.320;23.198;2023-06-04T02:23:55;7.00;7.00;2.67
72031;PMS5003;49185;42.320;23.198;2023-06-04T02:26:21;6.00;6.00;2.00
72031;PMS5003;49185;42.320;23.198;2023-06-04T02:28:46;5.33;5.00;1.00
72031;PMS5003;49185;42.320;23.198;2023-06-04T02:31:13;7.00;6.33;2.00
72031;PMS5003;49185;42.320;23.198;2023-06-04T02:33:38;6.00;5.75;2.00
72031;PMS5003;49185;42.320;23.198;2023-06-04T02:36:04;8.67;7.00;2.33
72031;PMS5003;49185;42.320;23.198;2023-06-04T02:38:29;8.67;7.67;2.00
72031;PMS5003;49185;42.320;23.198;2023-06-04T02:40:55;8.00;6.00;2.00
72031;PMS5003;49185;42.320;23.198;2023-06-04T02:43:20;7.00;5.00;1.00
72031;PMS5003;49185;42.320;23.198;2023-06-04T02:45:45;7.33;7.00;1.00
72031;PMS5003;49185;42.320;23.198;2023-06-04T02:48:11;8.00;8.00;2.00
72031;PMS5003;49185;42.320;23.198;2023-06-04T02:50:36;7.67;6.67;1.00
72031;PMS5003;49185;42.320;23.198;2023-06-04T02:53:01;6.00;5.33;1.00
72031;PMS5003;49185;42.320;23.198;2023-06-04T02:55:27;7.00;6.67;1.67
72031;PMS5003;49185;42.320;23.198;2023-06-04T02:57:52;8.00;7.67;2.00
72031;PMS5003;49185;42.320;23.198;2023-06-04T03:00:18;7.00;6.00;2.00
72031;PMS5003;49185;42.320;23.198;2023-06-04T03:02:44;6.33;5.67;3.67
72031;PMS5003;49185;42.320;23.198;2023-06-04T03:05:11;10.50;8.00;3.25
72031;PMS5003;49185;42.320;23.198;2023-06-04T03:07:38;7.50;6.00;2.00
72031;PMS5003;49185;42.320;23.198;2023-06-04T03:10:04;6.00;6.00;2.50
72031;PMS5003;49185;42.320;23.198;2023-06-04T03:12:30;8.00;8.00;5.00
72031;PMS5003;49185;42.320;23.198;2023-06-04T03:14:55;8.33;8.00;5.00
72031;PMS5003;49185;42.320;23.198;2023-06-04T03:17:21;9.33;8.00;3.67
72031;PMS5003;49185;42.320;23.198;2023-06-04T03:19:46;8.00;8.00;4.00
72031;PMS5003;49185;42.320;23.198;2023-06-04T03:22:12;10.33;10.00;4.00
72031;PMS5003;49185;42.320;23.198;2023-06-04T03:24:38;8.00;7.00;3.00
72031;PMS5003;49185;42.320;23.198;2023-06-04T03:27:05;9.00;9.00;4.00
72031;PMS5003;49185;42.320;23.198;2023-06-04T03:29:32;8.50;8.50;4.00
72031;PMS5003;49185;42.320;23.198;2023-06-04T03:31:58;8.25;8.25;4.00
72031;PMS5003;49185;42.320;23.198;2023-06-04T03:34:23;8.75;8.75;3.00
72031;PMS5003;49185;42.320;23.198;2023-06-04T03:36:49;9.00;8.00;4.00
72031;PMS5003;49185;42.320;23.198;2023-06-04T03:39:14;6.33;6.00;3.00
72031;PMS5003;49185;42.320;23.198;2023-06-04T03:41:40;5.33;5.33;3.00
72031;PMS5003;49185;42.320;23.198;2023-06-04T03:44:06;9.50;8.75;3.00
72031;PMS5003;49185;42.320;23.198;2023-06-04T03:46:31;8.00;6.33;3.00
72031;PMS5003;49185;42.320;23.198;2023-06-04T03:48:57;5.33;4.33;2.00
72031;PMS5003;49185;42.320;23.198;2023-06-04T03:51:22;6.00;6.00;3.00
72031;PMS5003;49185;42.320;23.198;2023-06-04T03:53:48;7.00;6.00;2.00
72031;PMS5003;49185;42.320;23.198;2023-06-04T03:56:13;6.67;6.67;1.00
72031;PMS5003;49185;42.320;23.198;2023-06-04T03:58:38;8.00;8.00;2.00
72031;PMS5003;49185;42.320;23.198;2023-06-04T04:01:04;7.00;6.00;2.00
72031;PMS5003;49185;42.320;23.198;2023-06-04T04:03:29;6.00;6.00;3.00
72031;PMS5003;49185;42.320;23.198;2023-06-04T04:05:55;7.00;7.00;3.67
72031;PMS5003;49185;42.320;23.198;2023-06-04T04:08:20;7.00;7.00;3.00
72031;PMS5003;49185;42.320;23.198;2023-06-04T04:10:46;7.00;7.00;3.00
72031;PMS5003;49185;42.320;23.198;2023-06-04T04:13:11;7.00;7.00;2.00
72031;PMS5003;49185;42.320;23.198;2023-06-04T04:15:36;7.00;7.00;3.00
72031;PMS5003;49185;42.320;23.198;2023-06-04T04:18:02;8.33;8.33;2.00
72031;PMS5003;49185;42.320;23.198;2023-06-04T04:20:27;9.00;8.00;2.67
72031;PMS5003;49185;42.320;23.198;2023-06-04T04:22:53;7.67;6.00;2.00
72031;PMS5003;49185;42.320;23.198;2023-06-04T04:25:18;6.00;6.00;2.67
72031;PMS5003;49185;42.320;23.198;2023-06-04T04:27:43;7.00;7.00;2.00
72031;PMS5003;49185;42.320;23.198;2023-06-04T04:30:09;9.00;9.00;5.00
72031;PMS5003;49185;42.320;23.198;2023-06-04T04:32:35;9.00;8.00;3.00
72031;PMS5003;49185;42.320;23.198;2023-06-04T04:35:00;9.00;9.00;3.00
72031;PMS5003;49185;42.320;23.198;2023-06-04T04:37:25;10.67;9.67;3.00
72031;PMS5003;49185;42.320;23.198;2023-06-04T04:39:51;9.00;9.00;3.00
72031;PMS5003;49185;42.320;23.198;2023-06-04T04:42:17;10.67;9.33;4.00
72031;PMS5003;49185;42.320;23.198;2023-06-04T04:44:43;11.00;10.00;3.00
72031;PMS5003;49185;42.320;23.198;2023-06-04T04:47:08;8.67;8.33;3.00
72031;PMS5003;49185;42.320;23.198;2023-06-04T04:49:33;13.33;10.67;4.67
72031;PMS5003;49185;42.320;23.198;2023-06-04T04:51:59;14.33;11.00;5.00
72031;PMS5003;49185;42.320;23.198;2023-06-04T04:54:24;10.67;8.00;5.00
72031;PMS5003;49185;42.320;23.198;2023-06-04T04:56:49;15.33;9.00;6.00
72031;PMS5003;49185;42.320;23.198;2023-06-04T04:59:15;17.00;11.00;4.00
72031;PMS5003;49185;42.320;23.198;2023-06-04T05:01:40;13.00;8.00;4.33
72031;PMS5003;49185;42.320;23.198;2023-06-04T05:04:06;13.00;9.33;4.00
72031;PMS5003;49185;42.320;23.198;2023-06-04T05:06:31;12.00;10.00;4.33
72031;PMS5003;49185;42.320;23.198;2023-06-04T05:08:56;11.67;9.67;5.00
72031;PMS5003;49185;42.320;23.198;2023-06-04T05:11:22;10.00;8.67;4.67
72031;PMS5003;49185;42.320;23.198;2023-06-04T05:13:47;11.33;8.67;3.00
72031;PMS5003;49185;42.320;23.198;2023-06-04T05:16:13;11.67;10.00;5.00
72031;PMS5003;49185;42.320;23.198;2023-06-04T05:18:38;12.75;12.75;6.00
72031;PMS5003;49185;42.320;23.198;2023-06-04T05:21:04;16.00;14.00;6.00
72031;PMS5003;49185;42.320;23.198;2023-06-04T05:23:29;16.00;13.33;6.00
72031;PMS5003;49185;42.320;23.198;2023-06-04T05:25:55;12.00;10.00;5.00
72031;PMS5003;49185;42.320;23.198;2023-06-04T05:28:20;13.67;12.00;6.00
72031;PMS5003;49185;42.320;23.198;2023-06-04T05:30:46;16.00;13.33;5.00
72031;PMS5003;49185;42.320;23.198;2023-06-04T05:33:11;19.67;17.33;8.00
72031;PMS5003;49185;42.320;23.198;2023-06-04T05:35:36;18.67;16.00;7.00
72031;PMS5003;49185;42.320;23.198;2023-06-04T05:38:02;18.00;17.00;6.00
72031;PMS5003;49185;42.320;23.198;2023-06-04T05:40:27;18.67;17.67;6.00
72031;PMS5003;49185;42.320;23.198;2023-06-04T05:42:53;18.67;18.33;6.00
72031;PMS5003;49185;42.320;23.198;2023-06-04T05:45:18;19.00;18.00;6.00
72031;PMS5003;49185;42.320;23.198;2023-06-04T05:47:43;19.67;17.33;5.67
72031;PMS5003;49185;42.320;23.198;2023-06-04T05:50:09;17.00;16.00;6.00
72031;PMS5003;49185;42.320;23.198;2023-06-04T05:52:35;16.00;14.00;4.75
72031;PMS5003;49185;42.320;23.198;2023-06-04T05:55:00;15.00;14.00;6.00
72031;PMS5003;49185;42.320;23.198;2023-06-04T05:57:26;13.00;13.00;4.67
72031;PMS5003;49185;42.320;23.198;2023-06-04T05:59:51;14.00;11.00;5.00
72031;PMS5003;49185;42.320;23.198;2023-06-04T06:02:17;15.00;11.00;4.00
72031;PMS5003;49185;42.320;23.198;2023-06-04T06:04:42;15.67;13.00;5.00
72031;PMS5003;49185;42.320;23.198;2023-06-04T06:07:08;17.00;14.00;6.00
72031;PMS5003;49185;42.320;23.198;2023-06-04T06:09:33;18.67;16.00;7.00
72031;PMS5003;49185;42.320;23.198;2023-06-04T06:11:59;19.00;18.00;8.00
72031;PMS5003;49185;42.320;23.198;2023-06-04T06:14:24;17.67;17.67;6.00
72031;PMS5003;49185;42.320;23.198;2023-06-04T06:16:49;15.00;14.00;5.00
72031;PMS5003;49185;42.320;23.198;2023-06-04T06:19:15;18.33;16.00;5.00
72031;PMS5003;49185;42.320;23.198;2023-06-04T06:21:40;17.67;15.00;5.33
72031;PMS5003;49185;42.320;23.198;2023-06-04T06:24:06;17.33;16.00;7.00
72031;PMS5003;49185;42.320;23.198;2023-06-04T06:26:31;16.33;14.00;5.67
72031;PMS5003;49185;42.320;23.198;2023-06-04T06:28:56;17.33;17.33;5.33
72031;PMS5003;49185;42.320;23.198;2023-06-04T06:31:22;18.00;18.00;7.00
72031;PMS5003;49185;42.320;23.198;2023-06-04T06:33:47;19.00;18.00;6.33
72031;PMS5003;49185;42.320;23.198;2023-06-04T06:36:13;18.00;17.33;7.00
72031;PMS5003;49185;42.320;23.198;2023-06-04T06:38:39;16.67;16.00;6.00
72031;PMS5003;49185;42.320;23.198;2023-06-04T06:41:06;15.00;13.00;4.25
72031;PMS5003;49185;42.320;23.198;2023-06-04T06:43:33;15.00;12.00;4.50
72031;PMS5003;49185;42.320;23.198;2023-06-04T06:45:58;18.00;14.67;6.00
72031;PMS5003;49185;42.320;23.198;2023-06-04T06:48:23;17.00;15.00;6.00
72031;PMS5003;49185;42.320;23.198;2023-06-04T06:50:49;19.00;17.00;6.00
72031;PMS5003;49185;42.320;23.198;2023-06-04T06:53:14;17.00;16.00;7.00
72031;PMS5003;49185;42.320;23.198;2023-06-04T06:55:40;19.00;17.67;7.00
72031;PMS5003;49185;42.320;23.198;2023-06-04T06:58:05;18.00;17.33;6.00
72031;PMS5003;49185;42.320;23.198;2023-06-04T07:00:30;15.67;15.00;5.00
72031;PMS5003;49185;42.320;23.198;2023-06-04T07:02:56;17.67;15.67;7.00
72031;PMS5003;49185;42.320;23.198;2023-06-04T07:05:21;16.67;15.67;4.00
72031;PMS5003;49185;42.320;23.198;2023-06-04T07:07:47;19.67;17.67;6.67
72031;PMS5003;49185;42.320;23.198;2023-06-04T07:10:12;19.00;18.00;8.00
72031;PMS5003;49185;42.320;23.198;2023-06-04T07:12:38;18.00;16.67;6.00
72031;PMS5003;49185;42.320;23.198;2023-06-04T07:15:04;15.00;13.67;4.00
72031;PMS5003;49185;42.320;23.198;2023-06-04T07:17:29;14.00;13.00;6.00
72031;PMS5003;49185;42.320;23.198;2023-06-04T07:19:55;17.00;16.00;5.00
72031;PMS5003;49185;42.320;23.198;2023-06-04T07:22:20;18.00;16.00;5.00
72031;PMS5003;49185;42.320;23.198;2023-06-04T07:24:46;16.33;15.33;6.00
72031;PMS5003;49185;42.320;23.198;2023-06-04T07:27:14;21.00;17.67;6.67
72031;PMS5003;49185;42.320;23.198;2023-06-04T07:29:42;41.50;35.00;18.25
72031;PMS5003;49185;42.320;23.198;2023-06-04T07:32:09;32.75;29.75;17.00
72031;PMS5003;49185;42.320;23.198;2023-06-04T07:34:34;18.00;18.00;7.00
72031;PMS5003;49185;42.320;23.198;2023-06-04T07:37:00;16.00;16.00;6.00
72031;PMS5003;49185;42.320;23.198;2023-06-04T07:39:27;17.00;16.00;7.00
72031;PMS5003;49185;42.320;23.198;2023-06-04T07:41:52;16.00;16.00;8.00
72031;PMS5003;49185;42.320;23.198;2023-06-04T07:44:17;14.67;14.67;4.00
72031;PMS5003;49185;42.320;23.198;2023-06-04T07:46:43;16.00;15.00;4.33
72031;PMS5003;49185;42.320;23.198;2023-06-04T07:49:09;16.00;13.67;5.67
72031;PMS5003;49185;42.320;23.198;2023-06-04T07:51:34;18.00;15.50;7.00
72031;PMS5003;49185;42.320;23.198;2023-06-04T07:54:00;17.33;15.00;4.00
72031;PMS5003;49185;42.320;23.198;2023-06-04T07:56:25;15.00;13.00;4.33
72031;PMS5003;49185;42.320;23.198;2023-06-04T07:58:51;15.00;14.00;6.00
72031;PMS5003;49185;42.320;23.198;2023-06-04T08:01:16;15.00;15.00;5.00
72031;PMS5003;49185;42.320;23.198;2023-06-04T08:03:41;11.00;10.00;3.00
72031;PMS5003;49185;42.320;23.198;2023-06-04T08:06:07;10.00;10.00;5.00
72031;PMS5003;49185;42.320;23.198;2023-06-04T08:08:32;12.33;11.00;3.00
72031;PMS5003;49185;42.320;23.198;2023-06-04T08:10:58;14.33;13.00;4.33
72031;PMS5003;49185;42.320;23.198;2023-06-04T08:13:23;14.00;12.00;4.33
72031;PMS5003;49185;42.320;23.198;2023-06-04T08:15:49;15.33;13.00;6.00
72031;PMS5003;49185;42.320;23.198;2023-06-04T08:18:14;16.00;14.00;6.00
72031;PMS5003;49185;42.320;23.198;2023-06-04T08:20:39;16.00;13.00;4.00
72031;PMS5003;49185;42.320;23.198;2023-06-04T08:23:05;16.00;11.00;4.00
72031;PMS5003;49185;42.320;23.198;2023-06-04T08:25:30;15.00;11.00;5.00
72031;PMS5003;49185;42.320;23.198;2023-06-04T08:27:56;14.00;11.00;5.00
72031;PMS5003;49185;42.320;23.198;2023-06-04T08:30:21;14.00;12.00;5.33
72031;PMS5003;49185;42.320;23.198;2023-06-04T08:32:46;14.67;14.00;6.00
72031;PMS5003;49185;42.320;23.198;2023-06-04T08:35:12;16.33;13.00;5.67
72031;PMS5003;49185;42.320;23.198;2023-06-04T08:37:37;19.00;16.00;6.67
72031;PMS5003;49185;42.320;23.198;2023-06-04T08:40:03;17.00;17.00;7.00
72031;PMS5003;49185;42.320;23.198;2023-06-04T08:42:29;18.00;16.50;7.00
72031;PMS5003;49185;42.320;23.198;2023-06-04T08:44:56;19.50;18.00;6.00
72031;PMS5003;49185;42.320;23.198;2023-06-04T08:47:23;18.00;17.25;7.00
72031;PMS5003;49185;42.320;23.198;2023-06-04T08:49:50;19.00;18.00;9.00
72031;PMS5003;49185;42.320;23.198;2023-06-04T08:52:17;20.25;18.00;7.00
72031;PMS5003;49185;42.320;23.198;2023-06-04T08:54:43;21.50;18.50;9.50
72031;PMS5003;49185;42.320;23.198;2023-06-04T08:57:09;26.00;21.00;11.00
72031;PMS5003;49185;42.320;23.198;2023-06-04T08:59:35;21.75;19.00;8.00
72031;PMS5003;49185;42.320;23.198;2023-06-04T09:02:01;18.00;16.25;6.25
72031;PMS5003;49185;42.320;23.198;2023-06-04T09:04:28;19.50;18.00;8.00
72031;PMS5003;49185;42.320;23.198;2023-06-04T09:06:54;20.67;20.00;8.00
72031;PMS5003;49185;42.320;23.198;2023-06-04T09:09:20;21.00;19.00;7.00
72031;PMS5003;49185;42.320;23.198;2023-06-04T09:11:51;21.50;20.25;6.00
72031;PMS5003;49185;42.320;23.198;2023-06-04T09:14:18;20.00;19.25;7.25
72031;PMS5003;49185;42.320;23.198;2023-06-04T09:16:51;20.00;19.50;7.75
72031;PMS5003;49185;42.320;23.198;2023-06-04T09:19:18;20.50;19.50;7.00
72031;PMS5003;49185;42.320;23.198;2023-06-04T09:22:00;20.25;19.25;8.75
72031;PMS5003;49185;42.320;23.198;2023-06-04T09:24:37;20.00;18.75;8.00
72031;PMS5003;49185;42.320;23.198;2023-06-04T09:27:10;21.50;19.25;8.25
72031;PMS5003;49185;42.320;23.198;2023-06-04T09:29:48;23.00;20.00;8.75
72031;PMS5003;49185;42.320;23.198;2023-06-04T09:32:35;20.50;20.50;7.50
72031;PMS5003;49185;42.320;23.198;2023-06-04T09:37:35;28.50;26.75;15.00
72031;PMS5003;49185;42.320;23.198;2023-06-04T09:40:01;41.67;34.00;22.00
72031;PMS5003;49185;42.320;23.198;2023-06-04T09:42:28;39.00;33.00;21.00
72031;PMS5003;49185;42.320;23.198;2023-06-04T09:44:53;34.00;31.00;19.75
72031;PMS5003;49185;42.320;23.198;2023-06-04T09:47:19;26.67;26.67;16.00
72031;PMS5003;49185;42.320;23.198;2023-06-04T09:49:45;24.00;23.33;14.67
72031;PMS5003;49185;42.320;23.198;2023-06-04T09:52:12;24.25;22.75;12.00
72031;PMS5003;49185;42.320;23.198;2023-06-04T09:54:39;27.25;23.50;14.00
72031;PMS5003;49185;42.320;23.198;2023-06-04T09:57:13;26.00;23.75;12.00
72031;PMS5003;49185;42.320;23.198;2023-06-04T09:59:39;22.00;21.00;9.00
72031;PMS5003;49185;42.320;23.198;2023-06-04T10:02:07;20.25;19.00;6.75
72031;PMS5003;49185;42.320;23.198;2023-06-04T10:04:36;21.00;19.00;7.75
72031;PMS5003;49185;42.320;23.198;2023-06-04T10:07:05;18.00;18.00;7.00
72031;PMS5003;49185;42.320;23.198;2023-06-04T10:09:38;17.50;17.00;7.00
72031;PMS5003;49185;42.320;23.198;2023-06-04T10:12:04;18.50;17.75;7.00
72031;PMS5003;49185;42.320;23.198;2023-06-04T10:14:36;19.50;16.50;6.00
72031;PMS5003;49185;42.320;23.198;2023-06-04T10:17:09;20.00;18.00;8.00
72031;PMS5003;49185;42.320;23.198;2023-06-04T10:19:37;18.50;16.50;8.00
72031;PMS5003;49185;42.320;23.198;2023-06-04T10:22:06;18.00;17.00;7.00
72031;PMS5003;49185;42.320;23.198;2023-06-04T10:24:32;18.25;17.75;7.75
72031;PMS5003;49185;42.320;23.198;2023-06-04T10:26:58;18.00;18.00;5.00
72031;PMS5003;49185;42.320;23.198;2023-06-04T10:29:24;19.00;16.00;5.50
72031;PMS5003;49185;42.320;23.198;2023-06-04T10:31:54;21.25;20.25;8.75
72031;PMS5003;49185;42.320;23.198;2023-06-04T10:34:20;22.00;21.00;7.00
72031;PMS5003;49185;42.320;23.198;2023-06-04T10:36:45;19.67;19.67;5.00
72031;PMS5003;49185;42.320;23.198;2023-06-04T10:39:11;17.00;17.00;5.00
72031;PMS5003;49185;42.320;23.198;2023-06-04T10:41:36;17.67;16.00;5.33
72031;PMS5003;49185;42.320;23.198;2023-06-04T10:44:02;17.00;17.00;6.00
72031;PMS5003;49185;42.320;23.198;2023-06-04T10:46:37;19.00;17.00;6.67
72031;PMS5003;49185;42.320;23.198;2023-06-04T10:49:08;20.25;18.25;8.25
72031;PMS5003;49185;42.320;23.198;2023-06-04T10:51:34;20.50;19.00;8.00
72031;PMS5003;49185;42.320;23.198;2023-06-04T10:54:01;16.67;15.00;6.67
72031;PMS5003;49185;42.320;23.198;2023-06-04T10:56:28;19.00;17.50;7.00
72031;PMS5003;49185;42.320;23.198;2023-06-04T10:58:55;15.25;13.00;5.00
72031;PMS5003;49185;42.320;23.198;2023-06-04T11:01:27;16.00;13.00;6.75
72031;PMS5003;49185;42.320;23.198;2023-06-04T11:03:53;17.25;14.00;6.00
72031;PMS5003;49185;42.320;23.198;2023-06-04T11:06:18;15.00;13.00;7.00
72031;PMS5003;49185;42.320;23.198;2023-06-04T11:08:43;16.00;13.00;6.00
72031;PMS5003;49185;42.320;23.198;2023-06-04T11:11:12;15.67;13.33;5.00
72031;PMS5003;49185;42.320;23.198;2023-06-04T11:13:39;12.00;12.00;5.00
72031;PMS5003;49185;42.320;23.198;2023-06-04T11:16:19;10.00;10.00;3.00
72031;PMS5003;49185;42.320;23.198;2023-06-04T11:18:55;9.25;8.50;4.75
72031;PMS5003;49185;42.320;23.198;2023-06-04T11:21:21;11.75;10.75;4.75
72031;PMS5003;49185;42.320;23.198;2023-06-04T11:23:47;10.00;9.00;4.00
72031;PMS5003;49185;42.320;23.198;2023-06-04T11:26:13;11.00;10.00;5.00
72031;PMS5003;49185;42.320;23.198;2023-06-04T11:28:39;11.33;11.00;5.00
72031;PMS5003;49185;42.320;23.198;2023-06-04T11:31:05;12.00;12.00;5.50
72031;PMS5003;49185;42.320;23.198;2023-06-04T11:33:30;11.67;10.00;6.00
72031;PMS5003;49185;42.320;23.198;2023-06-04T11:36:06;12.75;11.00;5.25
72031;PMS5003;49185;42.320;23.198;2023-06-04T11:38:31;11.00;10.00;4.00
72031;PMS5003;49185;42.320;23.198;2023-06-04T11:40:57;12.00;11.00;6.00
72031;PMS5003;49185;42.320;23.198;2023-06-04T11:43:24;12.00;12.00;5.00
72031;PMS5003;49185;42.320;23.198;2023-06-04T11:45:49;11.00;11.00;5.00
72031;PMS5003;49185;42.320;23.198;2023-06-04T11:48:15;10.00;10.00;5.00
72031;PMS5003;49185;42.320;23.198;2023-06-04T11:50:42;10.00;10.00;5.50
72031;PMS5003;49185;42.320;23.198;2023-06-04T11:53:07;9.00;9.00;5.00
72031;PMS5003;49185;42.320;23.198;2023-06-04T11:55:33;11.00;10.67;5.33
72031;PMS5003;49185;42.320;23.198;2023-06-04T11:57:58;13.00;10.67;6.67
72031;PMS5003;49185;42.320;23.198;2023-06-04T12:00:24;12.00;10.00;5.00
72031;PMS5003;49185;42.320;23.198;2023-06-04T12:02:54;14.33;11.67;5.67
72031;PMS5003;49185;42.320;23.198;2023-06-04T12:05:21;14.75;13.75;6.50
72031;PMS5003;49185;42.320;23.198;2023-06-04T12:07:51;14.00;13.00;6.00
72031;PMS5003;49185;42.320;23.198;2023-06-04T12:10:17;15.25;14.00;6.00
72031;PMS5003;49185;42.320;23.198;2023-06-04T12:12:44;15.00;13.00;5.00
72031;PMS5003;49185;42.320;23.198;2023-06-04T12:15:09;12.00;11.33;5.00
72031;PMS5003;49185;42.320;23.198;2023-06-04T12:17:36;14.00;13.00;5.00
72031;PMS5003;49185;42.320;23.198;2023-06-04T12:20:02;15.25;13.50;6.00
72031;PMS5003;49185;42.320;23.198;2023-06-04T12:22:27;16.00;16.00;6.67
72031;PMS5003;49185;42.320;23.198;2023-06-04T12:24:53;16.00;15.00;6.00
72031;PMS5003;49185;42.320;23.198;2023-06-04T12:27:21;14.00;13.00;7.00
72031;PMS5003;49185;42.320;23.198;2023-06-04T12:29:57;16.75;15.50;7.00
72031;PMS5003;49185;42.320;23.198;2023-06-04T12:32:23;19.00;17.00;7.75
72031;PMS5003;49185;42.320;23.198;2023-06-04T12:34:49;19.67;18.00;7.33
72031;PMS5003;49185;42.320;23.198;2023-06-04T12:37:15;20.00;19.00;10.00
72031;PMS5003;49185;42.320;23.198;2023-06-04T12:39:40;20.00;18.00;7.00
72031;PMS5003;49185;42.320;23.198;2023-06-04T12:42:07;23.00;19.00;8.75
72031;PMS5003;49185;42.320;23.198;2023-06-04T12:44:32;20.00;17.50;8.00
72031;PMS5003;49185;42.320;23.198;2023-06-04T12:46:58;21.67;20.67;9.67
72031;PMS5003;49185;42.320;23.198;2023-06-04T12:49:23;21.00;20.00;9.00
72031;PMS5003;49185;42.320;23.198;2023-06-04T12:51:49;22.00;21.00;10.67
72031;PMS5003;49185;42.320;23.198;2023-06-04T12:54:14;20.33;20.00;11.00
72031;PMS5003;49185;42.320;23.198;2023-06-04T12:56:40;21.00;20.00;8.67
72031;PMS5003;49185;42.320;23.198;2023-06-04T12:59:05;20.00;20.00;8.50
72031;PMS5003;49185;42.320;23.198;2023-06-04T13:01:31;21.33;21.00;10.67
72031;PMS5003;49185;42.320;23.198;2023-06-04T13:03:56;24.00;22.33;12.00
72031;PMS5003;49185;42.320;23.198;2023-06-04T13:06:22;23.67;23.67;12.00
72031;PMS5003;49185;42.320;23.198;2023-06-04T13:08:47;24.00;22.00;11.00
72031;PMS5003;49185;42.320;23.198;2023-06-04T13:11:13;27.33;22.33;14.00
72031;PMS5003;49185;42.320;23.198;2023-06-04T13:13:38;27.67;25.00;13.00
72031;PMS5003;49185;42.320;23.198;2023-06-04T13:16:04;26.00;23.00;12.00
72031;PMS5003;49185;42.320;23.198;2023-06-04T13:18:29;26.00;24.00;14.00
72031;PMS5003;49185;42.320;23.198;2023-06-04T13:20:55;24.00;22.00;12.00
72031;PMS5003;49185;42.320;23.198;2023-06-04T13:23:21;23.67;22.00;11.00
72031;PMS5003;49185;42.320;23.198;2023-06-04T13:25:46;24.00;22.00;11.75
72031;PMS5003;49185;42.320;23.198;2023-06-04T13:28:12;21.00;20.00;9.33
72031;PMS5003;49185;42.320;23.198;2023-06-04T13:30:37;23.00;21.00;12.00
72031;PMS5003;49185;42.320;23.198;2023-06-04T13:33:04;23.25;22.00;11.00
72031;PMS5003;49185;42.320;23.198;2023-06-04T13:35:29;23.50;22.50;10.00
72031;PMS5003;49185;42.320;23.198;2023-06-04T13:37:55;23.00;22.00;8.00
72031;PMS5003;49185;42.320;23.198;2023-06-04T13:40:20;23.00;20.00;11.00
72031;PMS5003;49185;42.320;23.198;2023-06-04T13:42:46;24.00;23.00;10.00
72031;PMS5003;49185;42.320;23.198;2023-06-04T13:45:12;21.00;20.00;9.00
72031;PMS5003;49185;42.320;23.198;2023-06-04T13:47:37;22.67;21.00;10.00
72031;PMS5003;49185;42.320;23.198;2023-06-04T13:50:02;22.00;20.00;12.00
72031;PMS5003;49185;42.320;23.198;2023-06-04T13:52:28;20.00;18.67;9.67